Time;durP1;ratioP1;P1;durP2;ratioP2;P2;SDS_P1;SDS_P2;PMS_P1;PMS_P2;Temp;Humidity;BMP_temperature;BMP_pressure;BME280_temperature;BME280_humidity;BME280_pressure;Samples;Min_cycle;Max_cycle;Signal;HPM_P1;HPM_P2
2021/01/23 00:00:37;;;;;;;;;;;-0.10;99.90;;;;;;5120004;27;19908;-89
2021/01/23 00:03:12;;;;;;;;;;;-0.10;99.90;;;;;;5116461;27;19918;-89
2021/01/23 00:05:46;;;;;;;;;;;-0.10;99.90;;;;;;5136420;27;20014;-88
2021/01/23 00:08:12;;;;;;;;;;;-0.10;99.90;;;;;;5131820;27;20360;-89
2021/01/23 00:10:43;;;;;;;;;;;-0.20;99.90;;;;;;5148035;27;19907;-88
2021/01/23 00:13:16;;;;;;;;;;;-0.20;99.90;;;;;;5122437;27;19907;-89
2021/01/23 00:15:44;;;;;;;;;;;-0.20;99.90;;;;;;5134884;27;19908;-89
2021/01/23 00:18:19;;;;;;;;;;;-0.20;99.90;;;;;;5119758;27;20371;-89
2021/01/23 00:20:48;;;;;;;;;;;-0.20;99.90;;;;;;5119227;27;19908;-89
2021/01/23 00:23:16;;;;;;;;;;;-0.20;99.90;;;;;;5131693;27;19914;-89
2021/01/23 00:25:48;;;;;;;;;;;-0.20;99.90;;;;;;5113400;27;19923;-89
2021/01/23 00:28:17;;;;;;;;;;;-0.20;99.90;;;;;;5132323;27;19907;-90
2021/01/23 00:30:48;;;;;;;;;;;-0.30;99.90;;;;;;5118318;27;20037;-87
2021/01/23 00:33:17;;;;;;;;;;;-0.30;99.90;;;;;;5118931;27;20356;-88
2021/01/23 00:35:56;;;;;;;;;;;-0.30;99.90;;;;;;5119983;27;19912;-89
2021/01/23 00:38:29;;;;;;;;;;;-0.30;99.90;;;;;;5118837;27;20001;-89
2021/01/23 00:41:05;;;;;;;;;;;-0.30;99.90;;;;;;5113402;27;19907;-90
2021/01/23 00:43:34;;;;;;;;;;;-0.30;99.90;;;;;;5118966;27;20332;-90
2021/01/23 00:46:09;;;;;;;;;;;-0.30;99.90;;;;;;5118348;27;19911;-89
2021/01/23 00:48:45;;;;;;;;;;;-0.30;99.90;;;;;;5118630;27;19907;-90
2021/01/23 00:51:11;;;;;;;;;;;-0.30;99.90;;;;;;5118678;27;20367;-90
2021/01/23 00:53:39;;;;;;;;;;;-0.30;99.90;;;;;;5118778;27;20360;-90
2021/01/23 00:56:06;;;;;;;;;;;-0.30;99.90;;;;;;5118460;27;20010;-90
2021/01/23 00:58:35;;;;;;;;;;;-0.30;99.90;;;;;;5118145;27;19969;-90
2021/01/23 01:01:10;;;;;;;;;;;-0.30;99.90;;;;;;5131131;27;19985;-90
2021/01/23 01:03:36;;;;;;;;;;;-0.30;99.90;;;;;;5119156;27;19943;-88
2021/01/23 01:06:05;;;;;;;;;;;-0.30;99.90;;;;;;5117654;27;19929;-89
2021/01/23 01:08:36;;;;;;;;;;;-0.30;99.90;;;;;;5118236;27;19915;-89
2021/01/23 01:11:14;;;;;;;;;;;-0.30;99.90;;;;;;5118726;27;19914;-89
2021/01/23 01:13:43;;;;;;;;;;;-0.30;99.90;;;;;;5136161;27;19946;-89
2021/01/23 01:16:14;;;;;;;;;;;-0.20;99.90;;;;;;5118676;27;19912;-88
2021/01/23 01:18:43;;;;;;;;;;;-0.20;99.90;;;;;;5114779;27;19915;-88
2021/01/23 01:21:10;;;;;;;;;;;-0.20;99.90;;;;;;5112323;28;19907;-89
2021/01/23 01:23:39;;;;;;;;;;;-0.30;99.90;;;;;;5119487;28;19934;-89
2021/01/23 01:26:15;;;;;;;;;;;-0.30;99.90;;;;;;5119634;27;19916;-89
2021/01/23 01:28:49;;;;;;;;;;;-0.30;99.90;;;;;;5118097;27;19915;-89
2021/01/23 01:31:19;;;;;;;;;;;-0.30;99.90;;;;;;5118673;28;19907;-89
2021/01/23 01:33:48;;;;;;;;;;;-0.40;99.90;;;;;;5118028;28;19907;-88
2021/01/23 01:36:18;;;;;;;;;;;-0.30;99.90;;;;;;5136568;28;19911;-89
2021/01/23 01:38:46;;;;;;;;;;;-0.40;99.90;;;;;;5122615;27;19912;-89
2021/01/23 01:41:12;;;;;;;;;;;-0.40;99.90;;;;;;5116796;27;19907;-89
2021/01/23 01:43:43;;;;;;;;;;;-0.40;99.90;;;;;;5122969;27;19998;-87
2021/01/23 01:46:13;;;;;;;;;;;-0.40;99.90;;;;;;5118487;27;19915;-88
2021/01/23 01:48:40;;;;;;;;;;;-0.40;99.90;;;;;;5123237;27;19908;-88
2021/01/23 01:51:18;;;;;;;;;;;-0.50;99.90;;;;;;5144859;27;19963;-88
2021/01/23 01:53:52;;;;;;;;;;;-0.50;99.90;;;;;;5128421;27;19953;-88
2021/01/23 01:56:23;;;;;;;;;;;-0.50;99.90;;;;;;5122262;27;20002;-88
2021/01/23 01:58:52;;;;;;;;;;;-0.50;99.90;;;;;;5140294;27;19926;-87
2021/01/23 02:01:21;;;;;;;;;;;-0.50;99.90;;;;;;5134550;27;19914;-88
2021/01/23 02:04:06;;;;;;;;;;;-0.50;99.90;;;;;;5140468;27;19911;-88
2021/01/23 02:06:37;;;;;;;;;;;-0.60;99.90;;;;;;5121778;27;20286;-89
2021/01/23 02:09:21;;;;;;;;;;;-0.50;99.90;;;;;;5140074;27;19961;-89
2021/01/23 02:11:58;;;;;;;;;;;-0.50;99.90;;;;;;5141060;27;19907;-88
2021/01/23 02:14:49;;;;;;;;;;;-0.60;99.90;;;;;;5140583;27;20007;-89
2021/01/23 02:17:21;;;;;;;;;;;-0.60;99.90;;;;;;5076200;27;19967;-88
2021/01/23 02:20:13;;;;;;;;;;;-0.60;99.90;;;;;;5121761;27;19907;-88
2021/01/23 02:22:56;;;;;;;;;;;-0.70;99.90;;;;;;5121795;27;19912;-88
2021/01/23 02:25:30;;;;;;;;;;;-0.60;99.90;;;;;;5140443;27;19922;-88
2021/01/23 02:27:56;;;;;;;;;;;-0.70;99.90;;;;;;5140176;27;20376;-88
2021/01/23 02:30:29;;;;;;;;;;;-0.70;99.90;;;;;;5121329;27;19914;-88
2021/01/23 02:33:03;;;;;;;;;;;-0.70;99.90;;;;;;5121713;27;19960;-88
2021/01/23 02:35:29;;;;;;;;;;;-0.70;99.90;;;;;;5139835;27;20092;-87
2021/01/23 02:37:57;;;;;;;;;;;-0.70;99.90;;;;;;5139353;27;19982;-88
2021/01/23 02:40:28;;;;;;;;;;;-0.60;99.90;;;;;;5140296;27;19912;-88
2021/01/23 02:42:56;;;;;;;;;;;-0.60;99.90;;;;;;5121762;27;19914;-88
2021/01/23 02:45:22;;;;;;;;;;;-0.40;99.90;;;;;;5133955;27;20371;-88
2021/01/23 02:47:53;;;;;;;;;;;-0.30;99.90;;;;;;5140153;27;19907;-89
2021/01/23 02:50:22;;;;;;;;;;;-0.20;99.90;;;;;;5133865;27;20360;-89
2021/01/23 02:52:59;;;;;;;;;;;-0.10;99.90;;;;;;5121086;27;19907;-88
2021/01/23 02:55:32;;;;;;;;;;;0.00;99.90;;;;;;5121091;27;20382;-88
2021/01/23 02:58:02;;;;;;;;;;;0.10;99.90;;;;;;5115899;27;20408;-88
2021/01/23 03:00:31;;;;;;;;;;;0.00;99.90;;;;;;5121714;27;19911;-88
2021/01/23 03:02:58;;;;;;;;;;;0.00;99.90;;;;;;5120963;27;19918;-89
2021/01/23 03:05:27;;;;;;;;;;;0.00;99.90;;;;;;5120931;27;19929;-89
2021/01/23 03:07:59;;;;;;;;;;;0.00;99.90;;;;;;5120918;27;19978;-89
2021/01/23 03:10:38;;;;;;;;;;;0.00;99.90;;;;;;5120832;27;19907;-88
2021/01/23 03:13:04;;;;;;;;;;;0.00;99.90;;;;;;5121055;27;19957;-88
2021/01/23 03:15:36;;;;;;;;;;;0.10;99.90;;;;;;5139875;27;19946;-88
2021/01/23 03:18:09;;;;;;;;;;;0.20;99.90;;;;;;5120686;27;19960;-87
2021/01/23 03:20:37;;;;;;;;;;;0.30;99.90;;;;;;5120836;27;19972;-89
2021/01/23 03:23:06;;;;;;;;;;;0.40;99.90;;;;;;5133918;27;19994;-88
2021/01/23 03:25:35;;;;;;;;;;;0.50;99.90;;;;;;5138834;27;19916;-89
2021/01/23 03:28:23;;;;;;;;;;;0.50;99.90;;;;;;5120480;27;19957;-88
2021/01/23 03:30:54;;;;;;;;;;;0.60;99.90;;;;;;5120121;27;19970;-89
2021/01/23 03:33:26;;;;;;;;;;;0.60;99.90;;;;;;5134582;27;19907;-88
2021/01/23 03:35:57;;;;;;;;;;;0.60;99.90;;;;;;5115900;27;19911;-88
2021/01/23 03:38:35;;;;;;;;;;;0.60;99.90;;;;;;5139785;27;19907;-89
2021/01/23 03:41:15;;;;;;;;;;;0.70;99.90;;;;;;5120857;27;19964;-88
2021/01/23 03:43:56;;;;;;;;;;;0.80;99.90;;;;;;5121456;27;20339;-88
2021/01/23 03:46:24;;;;;;;;;;;0.90;99.90;;;;;;5120511;27;19922;-88
2021/01/23 03:48:50;;;;;;;;;;;0.90;99.90;;;;;;5120057;27;19915;-88
2021/01/23 03:51:18;;;;;;;;;;;1.00;99.90;;;;;;5114325;27;19912;-88
2021/01/23 03:53:49;;;;;;;;;;;1.10;99.90;;;;;;5120357;27;19970;-88
2021/01/23 03:56:15;;;;;;;;;;;1.30;99.90;;;;;;5120847;27;19979;-89
2021/01/23 03:58:46;;;;;;;;;;;1.50;99.90;;;;;;5120140;27;19969;-89
2021/01/23 04:01:22;;;;;;;;;;;1.60;99.90;;;;;;5118905;27;19911;-89
2021/01/23 04:03:56;;;;;;;;;;;1.80;99.90;;;;;;5138599;27;19908;-89
2021/01/23 04:06:28;;;;;;;;;;;2.00;99.90;;;;;;5119879;27;19926;-89
2021/01/23 04:08:53;;;;;;;;;;;2.10;99.90;;;;;;5138491;27;19908;-89
2021/01/23 04:11:29;;;;;;;;;;;2.30;99.90;;;;;;5112807;27;19933;-89
2021/01/23 04:13:55;;;;;;;;;;;2.40;99.90;;;;;;5120133;27;20002;-89
2021/01/23 04:16:20;;;;;;;;;;;2.50;99.90;;;;;;5120070;27;19954;-90
2021/01/23 04:18:55;;;;;;;;;;;2.60;99.90;;;;;;5094414;28;20311;-89
2021/01/23 04:21:26;;;;;;;;;;;2.60;99.90;;;;;;5078140;28;19908;-89
2021/01/23 04:24:02;;;;;;;;;;;2.70;99.90;;;;;;5077775;28;19915;-89
2021/01/23 04:26:31;;;;;;;;;;;2.80;99.90;;;;;;5077279;28;20026;-89
2021/01/23 04:28:59;;;;;;;;;;;2.70;99.90;;;;;;5094764;28;19912;-89
2021/01/23 04:31:27;;;;;;;;;;;2.80;99.90;;;;;;5077535;28;19912;-89
2021/01/23 04:34:01;;;;;;;;;;;2.80;99.90;;;;;;5077523;28;19915;-89
2021/01/23 04:36:31;;;;;;;;;;;2.80;99.90;;;;;;5074699;28;19912;-89
2021/01/23 04:39:00;;;;;;;;;;;2.80;99.90;;;;;;5074979;28;20047;-89
2021/01/23 04:41:35;;;;;;;;;;;2.80;99.90;;;;;;5074958;28;19912;-89
2021/01/23 04:44:01;;;;;;;;;;;2.80;99.90;;;;;;5077261;28;19912;-89
2021/01/23 04:46:30;;;;;;;;;;;2.90;99.90;;;;;;5076977;28;20084;-89
2021/01/23 04:49:02;;;;;;;;;;;2.90;99.90;;;;;;5081420;27;19914;-89
2021/01/23 04:51:27;;;;;;;;;;;2.90;99.90;;;;;;5137373;27;20364;-89
2021/01/23 04:53:57;;;;;;;;;;;2.90;99.90;;;;;;5141615;27;19915;-89
2021/01/23 04:56:27;;;;;;;;;;;2.90;99.90;;;;;;5136702;27;20025;-89
2021/01/23 04:58:56;;;;;;;;;;;2.90;99.90;;;;;;5124439;27;19975;-89
2021/01/23 05:01:30;;;;;;;;;;;2.90;99.90;;;;;;5124433;27;19908;-89
2021/01/23 05:04:02;;;;;;;;;;;3.00;99.90;;;;;;5120498;27;19973;-88
2021/01/23 05:06:31;;;;;;;;;;;3.00;99.90;;;;;;5124096;27;19926;-88
2021/01/23 05:09:07;;;;;;;;;;;3.00;99.90;;;;;;5123269;28;19966;-90
2021/01/23 05:11:45;;;;;;;;;;;2.90;99.90;;;;;;5116715;27;19997;-89
2021/01/23 05:14:17;;;;;;;;;;;3.00;99.90;;;;;;5126185;27;19907;-87
2021/01/23 05:16:46;;;;;;;;;;;2.90;99.90;;;;;;5126800;27;20278;-90
2021/01/23 05:19:16;;;;;;;;;;;2.90;99.90;;;;;;5119385;27;19907;-89
2021/01/23 05:22:02;;;;;;;;;;;2.90;99.90;;;;;;5119645;27;19907;-90
2021/01/23 05:24:28;;;;;;;;;;;2.90;99.90;;;;;;5118424;27;19912;-89
2021/01/23 05:26:59;;;;;;;;;;;2.80;99.90;;;;;;5118753;28;19918;-89
2021/01/23 05:29:27;;;;;;;;;;;2.80;99.90;;;;;;5118546;27;19907;-89
2021/01/23 05:32:18;;;;;;;;;;;2.70;99.90;;;;;;5136750;27;19930;-89
2021/01/23 05:34:46;;;;;;;;;;;2.70;99.90;;;;;;5118498;28;19907;-90
2021/01/23 05:37:29;;;;;;;;;;;2.70;99.90;;;;;;5118419;28;19908;-90
2021/01/23 05:39:59;;;;;;;;;;;2.70;99.90;;;;;;5118140;28;19929;-89
2021/01/23 05:42:27;;;;;;;;;;;2.80;99.90;;;;;;5119011;28;20332;-89
2021/01/23 05:45:06;;;;;;;;;;;2.80;99.90;;;;;;5118933;28;19967;-89
2021/01/23 05:47:38;;;;;;;;;;;2.80;99.90;;;;;;5118816;28;19911;-89
2021/01/23 05:50:11;;;;;;;;;;;2.80;99.90;;;;;;5118820;28;20360;-89
2021/01/23 05:52:40;;;;;;;;;;;2.90;99.90;;;;;;5118334;28;20360;-90
2021/01/23 05:55:09;;;;;;;;;;;2.90;99.90;;;;;;5118513;28;20369;-89
2021/01/23 05:57:35;;;;;;;;;;;2.90;99.90;;;;;;5117969;28;19914;-89
2021/01/23 06:00:06;;;;;;;;;;;2.90;99.90;;;;;;5111835;28;19911;-89
2021/01/23 06:02:41;;;;;;;;;;;2.90;99.90;;;;;;5133690;28;19915;-90
2021/01/23 06:05:16;;;;;;;;;;;2.80;99.90;;;;;;5117452;28;20259;-89
2021/01/23 06:07:51;;;;;;;;;;;2.90;99.90;;;;;;5136441;28;20473;-90
2021/01/23 06:10:49;;;;;;;;;;;2.90;99.90;;;;;;5135022;28;19911;-89
2021/01/23 06:13:35;;;;;;;;;;;3.00;99.90;;;;;;5118181;28;19914;-89
2021/01/23 06:16:00;;;;;;;;;;;3.00;99.90;;;;;;5118228;28;19914;-89
2021/01/23 06:18:30;;;;;;;;;;;3.10;99.90;;;;;;5118765;28;19912;-89
2021/01/23 06:21:02;;;;;;;;;;;3.00;99.90;;;;;;5119527;28;20409;-89
2021/01/23 06:23:50;;;;;;;;;;;3.00;99.90;;;;;;5118265;28;19917;-90
2021/01/23 06:26:25;;;;;;;;;;;2.90;99.90;;;;;;5139972;27;19938;-89
2021/01/23 06:28:54;;;;;;;;;;;2.80;99.90;;;;;;5116110;27;19911;-89
2021/01/23 06:31:31;;;;;;;;;;;2.70;99.90;;;;;;5121853;27;19907;-89
2021/01/23 06:34:00;;;;;;;;;;;2.70;99.90;;;;;;5140262;27;19958;-89
2021/01/23 06:36:29;;;;;;;;;;;2.80;99.90;;;;;;5118407;27;19940;-90
2021/01/23 06:39:03;;;;;;;;;;;2.80;99.90;;;;;;5121487;27;19914;-89
2021/01/23 06:41:32;;;;;;;;;;;2.80;99.90;;;;;;5115775;27;19907;-89
2021/01/23 06:44:10;;;;;;;;;;;2.90;99.90;;;;;;5121364;27;19922;-88
2021/01/23 06:46:40;;;;;;;;;;;3.00;99.90;;;;;;5120896;27;20002;-88
2021/01/23 06:49:15;;;;;;;;;;;3.00;99.90;;;;;;5121103;27;19914;-89
2021/01/23 06:52:00;;;;;;;;;;;3.10;99.90;;;;;;5139633;27;19908;-89
2021/01/23 06:54:32;;;;;;;;;;;3.20;99.90;;;;;;5129016;27;19907;-88
2021/01/23 06:57:11;;;;;;;;;;;3.20;99.90;;;;;;5145748;27;19907;-89
2021/01/23 06:59:42;;;;;;;;;;;3.30;99.90;;;;;;5118342;27;20316;-89
2021/01/23 07:02:16;;;;;;;;;;;3.30;99.90;;;;;;5120859;27;19907;-90
2021/01/23 07:05:04;;;;;;;;;;;3.30;99.90;;;;;;5121005;27;19918;-89
2021/01/23 07:07:37;;;;;;;;;;;3.40;99.90;;;;;;5118987;27;20002;-88
2021/01/23 07:10:05;;;;;;;;;;;3.40;99.90;;;;;;5135747;27;19907;-89
2021/01/23 07:12:37;;;;;;;;;;;3.40;99.90;;;;;;5134219;27;19911;-89
2021/01/23 07:15:07;;;;;;;;;;;3.40;99.90;;;;;;5141037;27;19993;-89
2021/01/23 07:17:33;;;;;;;;;;;3.50;99.90;;;;;;5134937;27;20009;-88
2021/01/23 07:20:01;;;;;;;;;;;3.50;99.90;;;;;;5139783;27;19907;-89
2021/01/23 07:22:30;;;;;;;;;;;3.50;99.90;;;;;;5140844;27;20355;-89
2021/01/23 07:24:55;;;;;;;;;;;3.50;99.90;;;;;;5140830;27;19918;-89
2021/01/23 07:27:26;;;;;;;;;;;3.50;99.90;;;;;;5159537;27;20435;-89
2021/01/23 07:29:52;;;;;;;;;;;3.50;99.90;;;;;;5140813;27;19946;-88
2021/01/23 07:32:20;;;;;;;;;;;3.50;99.90;;;;;;5140824;27;19907;-89
2021/01/23 07:34:58;;;;;;;;;;;3.50;99.90;;;;;;5137572;27;19961;-88
2021/01/23 07:37:59;;;;;;;;;;;3.50;99.90;;;;;;5127588;27;19907;-89
2021/01/23 07:40:29;;;;;;;;;;;3.50;99.90;;;;;;5080935;27;19911;-90
2021/01/23 07:42:58;;;;;;;;;;;3.40;99.90;;;;;;5131084;27;19992;-89
2021/01/23 07:45:26;;;;;;;;;;;3.30;99.90;;;;;;5129787;27;20427;-88
2021/01/23 07:48:06;;;;;;;;;;;3.30;99.90;;;;;;5145982;27;19911;-88
2021/01/23 07:50:42;;;;;;;;;;;3.30;99.90;;;;;;5136206;27;19907;-88
2021/01/23 07:53:27;;;;;;;;;;;3.30;99.90;;;;;;5119825;27;20428;-89
2021/01/23 07:55:56;;;;;;;;;;;3.20;99.90;;;;;;5150653;27;19911;-88
2021/01/23 07:58:26;;;;;;;;;;;3.10;99.90;;;;;;5134568;27;20355;-88
2021/01/23 08:01:17;;;;;;;;;;;3.10;99.90;;;;;;5124593;27;19912;-89
2021/01/23 08:03:46;;;;;;;;;;;3.00;99.90;;;;;;5128089;27;19907;-89
2021/01/23 08:06:24;;;;;;;;;;;3.00;99.90;;;;;;5126401;27;19915;-89
2021/01/23 08:08:53;;;;;;;;;;;3.00;99.90;;;;;;5158156;27;19907;-88
2021/01/23 08:11:35;;;;;;;;;;;3.00;99.90;;;;;;5139520;27;19940;-88
2021/01/23 08:14:17;;;;;;;;;;;3.00;99.90;;;;;;5158151;27;20359;-89
2021/01/23 08:16:58;;;;;;;;;;;3.00;99.90;;;;;;5157727;27;19907;-89
2021/01/23 08:19:31;;;;;;;;;;;3.10;99.90;;;;;;5134118;27;19907;-87
2021/01/23 08:22:03;;;;;;;;;;;3.30;99.90;;;;;;5139850;27;20000;-89
2021/01/23 08:24:40;;;;;;;;;;;3.50;99.90;;;;;;5144672;27;19918;-96
2021/01/23 08:27:22;;;;;;;;;;;3.60;99.90;;;;;;5041711;28;19912;-94
2021/01/23 08:29:51;;;;;;;;;;;3.70;99.90;;;;;;5060918;28;19966;-96
2021/01/23 08:32:20;;;;;;;;;;;3.90;99.90;;;;;;5081659;28;20011;-94
2021/01/23 08:34:48;;;;;;;;;;;4.00;99.90;;;;;;5086814;28;19908;-93
2021/01/23 08:37:18;;;;;;;;;;;4.10;99.90;;;;;;5089182;28;19996;-94
2021/01/23 08:39:48;;;;;;;;;;;4.40;99.90;;;;;;5076072;28;19908;-88
2021/01/23 08:42:25;;;;;;;;;;;4.50;99.90;;;;;;5074420;28;19915;-87
2021/01/23 08:44:55;;;;;;;;;;;4.50;99.90;;;;;;5072952;28;19912;-87
2021/01/23 08:47:26;;;;;;;;;;;4.70;99.90;;;;;;5069665;28;19940;-87
2021/01/23 08:49:55;;;;;;;;;;;5.10;99.90;;;;;;5034170;28;20003;-89
2021/01/23 08:52:26;;;;;;;;;;;5.40;99.90;;;;;;5053919;28;19925;-88
2021/01/23 08:54:54;;;;;;;;;;;5.50;99.90;;;;;;5043864;28;20384;-88
2021/01/23 08:57:23;;;;;;;;;;;5.40;99.90;;;;;;5089539;27;19974;-87
2021/01/23 08:59:54;;;;;;;;;;;5.20;99.90;;;;;;5156859;27;20235;-87
2021/01/23 09:02:25;;;;;;;;;;;5.00;99.90;;;;;;5140062;27;19986;-87
2021/01/23 09:04:57;;;;;;;;;;;4.80;99.90;;;;;;5152580;27;19912;-86
2021/01/23 09:07:25;;;;;;;;;;;4.60;99.90;;;;;;5138594;27;20335;-86
2021/01/23 09:09:54;;;;;;;;;;;4.40;99.90;;;;;;5156753;27;20313;-87
2021/01/23 09:12:20;;;;;;;;;;;4.40;99.90;;;;;;5140813;27;19907;-87
2021/01/23 09:14:51;;;;;;;;;;;4.30;99.90;;;;;;5138566;27;20283;-87
2021/01/23 09:17:20;;;;;;;;;;;4.30;99.90;;;;;;5139219;27;19911;-87
2021/01/23 09:19:51;;;;;;;;;;;4.30;99.90;;;;;;5139404;27;19907;-86
2021/01/23 09:22:21;;;;;;;;;;;4.20;99.90;;;;;;5137800;27;19994;-87
2021/01/23 09:24:56;;;;;;;;;;;4.70;99.90;;;;;;5138159;27;19923;-86
2021/01/23 09:27:24;;;;;;;;;;;5.50;99.90;;;;;;5137870;27;19914;-87
2021/01/23 09:29:53;;;;;;;;;;;6.00;99.90;;;;;;5138109;27;19986;-86
2021/01/23 09:32:22;;;;;;;;;;;6.20;99.90;;;;;;5155657;27;19911;-87
2021/01/23 09:34:54;;;;;;;;;;;6.40;99.90;;;;;;5137546;27;19911;-88
2021/01/23 09:37:36;;;;;;;;;;;6.50;99.90;;;;;;5155432;27;19908;-88
2021/01/23 09:40:13;;;;;;;;;;;6.90;99.90;;;;;;5137710;27;19907;-87
2021/01/23 09:42:47;;;;;;;;;;;7.10;99.90;;;;;;5138172;27;19936;-87
2021/01/23 09:45:13;;;;;;;;;;;7.40;99.90;;;;;;5132816;27;19918;-88
2021/01/23 09:47:44;;;;;;;;;;;7.90;99.90;;;;;;5137585;27;19907;-87
2021/01/23 09:50:18;;;;;;;;;;;8.10;99.90;;;;;;5131711;27;19914;-87
2021/01/23 09:52:47;;;;;;;;;;;7.80;99.90;;;;;;5137697;27;19998;-87
2021/01/23 09:55:33;;;;;;;;;;;7.30;99.90;;;;;;5071467;28;19909;-86
2021/01/23 09:57:58;;;;;;;;;;;6.80;99.90;;;;;;5071686;28;20007;-86
2021/01/23 10:00:28;;;;;;;;;;;6.50;99.90;;;;;;5071433;28;19971;-87
2021/01/23 10:02:56;;;;;;;;;;;6.30;99.90;;;;;;5044311;28;19928;-87
2021/01/23 10:05:23;;;;;;;;;;;6.20;99.90;;;;;;5062981;28;19970;-87
2021/01/23 10:07:54;;;;;;;;;;;6.00;99.90;;;;;;5049241;28;20019;-87
2021/01/23 10:10:25;;;;;;;;;;;6.00;99.90;;;;;;5068597;28;19916;-88
2021/01/23 10:13:01;;;;;;;;;;;6.00;99.90;;;;;;5064392;28;19995;-86
2021/01/23 10:15:32;;;;;;;;;;;6.00;99.90;;;;;;5059471;28;19996;-87
2021/01/23 10:18:01;;;;;;;;;;;6.00;99.90;;;;;;5071165;28;19909;-87
2021/01/23 10:20:28;;;;;;;;;;;6.20;99.90;;;;;;5060125;28;19913;-87
2021/01/23 10:23:02;;;;;;;;;;;6.80;99.90;;;;;;5045179;28;19963;-87
2021/01/23 10:25:27;;;;;;;;;;;8.10;99.90;;;;;;5087124;27;19915;-86
2021/01/23 10:27:59;;;;;;;;;;;9.50;99.90;;;;;;5140770;27;19918;-87
2021/01/23 10:30:27;;;;;;;;;;;10.40;95.80;;;;;;5156629;27;19911;-87
2021/01/23 10:32:55;;;;;;;;;;;11.20;90.70;;;;;;5140990;27;19907;-90
2021/01/23 10:35:24;;;;;;;;;;;12.00;85.60;;;;;;5140646;27;19918;-88
2021/01/23 10:37:54;;;;;;;;;;;12.70;78.70;;;;;;5140790;27;20056;-87
2021/01/23 10:40:28;;;;;;;;;;;13.20;75.30;;;;;;5140577;27;19907;-86
2021/01/23 10:42:58;;;;;;;;;;;13.60;70.90;;;;;;5037630;28;19915;-86
2021/01/23 10:45:24;;;;;;;;;;;13.70;71.40;;;;;;5055120;28;19912;-87
2021/01/23 10:47:55;;;;;;;;;;;13.20;71.00;;;;;;5054815;28;19913;-85
2021/01/23 10:50:23;;;;;;;;;;;12.30;74.40;;;;;;5051104;28;19915;-85
2021/01/23 10:52:51;;;;;;;;;;;11.70;76.20;;;;;;5050253;28;19931;-85
2021/01/23 10:55:23;;;;;;;;;;;11.00;76.90;;;;;;5051147;28;19917;-85
2021/01/23 10:57:48;;;;;;;;;;;10.40;78.90;;;;;;5054547;28;19963;-85
2021/01/23 11:00:14;;;;;;;;;;;10.00;80.60;;;;;;5048311;28;19921;-85
2021/01/23 11:02:40;;;;;;;;;;;9.70;82.10;;;;;;5028222;28;19951;-85
2021/01/23 11:05:14;;;;;;;;;;;9.60;82.30;;;;;;5036121;28;19917;-85
2021/01/23 11:07:40;;;;;;;;;;;9.40;83.90;;;;;;5033691;28;20337;-85
2021/01/23 11:10:05;;;;;;;;;;;9.30;84.80;;;;;;5049589;28;20009;-86
2021/01/23 11:12:33;;;;;;;;;;;9.00;85.50;;;;;;5054509;28;20247;-83
2021/01/23 11:14:58;;;;;;;;;;;8.60;85.40;;;;;;5136166;27;19907;-86
2021/01/23 11:17:24;;;;;;;;;;;8.30;86.20;;;;;;5130880;27;19936;-85
2021/01/23 11:19:50;;;;;;;;;;;8.00;88.60;;;;;;5130605;27;19959;-84
2021/01/23 11:22:15;;;;;;;;;;;8.00;88.30;;;;;;5142539;27;20376;-84
2021/01/23 11:24:44;;;;;;;;;;;7.80;89.10;;;;;;5119133;27;19912;-85
2021/01/23 11:27:22;;;;;;;;;;;;;;;;;;;;;
2021/01/23 11:29:55;;;;;;;;;;;7.30;90.90;;;;;;5134603;27;19948;-85
2021/01/23 11:32:22;;;;;;;;;;;7.00;91.50;;;;;;5116086;27;20001;-87
2021/01/23 11:34:49;;;;;;;;;;;6.80;92.00;;;;;;5119425;27;19911;-85
2021/01/23 11:37:15;;;;;;;;;;;6.60;92.90;;;;;;5116288;27;19914;-86
2021/01/23 11:39:50;;;;;;;;;;;6.50;94.20;;;;;;5118898;27;20332;-85
2021/01/23 11:42:22;;;;;;;;;;;6.50;94.80;;;;;;5136990;27;19907;-85
2021/01/23 11:44:47;;;;;;;;;;;6.40;95.20;;;;;;5119195;27;19915;-86
2021/01/23 11:47:13;;;;;;;;;;;6.40;95.70;;;;;;5135344;27;19915;-86
2021/01/23 11:49:44;;;;;;;;;;;6.60;95.90;;;;;;5140208;27;19914;-86
2021/01/23 11:52:15;;;;;;;;;;;7.10;94.90;;;;;;5139314;27;19907;-86
2021/01/23 11:54:47;;;;;;;;;;;7.60;93.30;;;;;;5157482;27;19915;-85
2021/01/23 11:57:13;;;;;;;;;;;7.90;92.80;;;;;;5139536;27;20371;-86
2021/01/23 11:59:46;;;;;;;;;;;8.20;92.30;;;;;;5149559;27;20005;-85
2021/01/23 12:02:14;;;;;;;;;;;8.60;91.90;;;;;;5145922;27;20390;-85
2021/01/23 12:04:42;;;;;;;;;;;8.90;90.10;;;;;;5158970;27;19917;-85
2021/01/23 12:07:07;;;;;;;;;;;8.90;89.30;;;;;;5154390;27;19976;-85
2021/01/23 12:09:33;;;;;;;;;;;8.90;89.80;;;;;;5141986;27;20328;-85
2021/01/23 12:12:08;;;;;;;;;;;8.80;89.60;;;;;;5142079;27;19930;-85
2021/01/23 12:14:34;;;;;;;;;;;8.50;88.10;;;;;;5141021;27;20386;-86
2021/01/23 12:17:02;;;;;;;;;;;8.20;89.30;;;;;;5135565;27;19919;-87
2021/01/23 12:19:28;;;;;;;;;;;7.90;90.40;;;;;;5112956;27;19945;-88
2021/01/23 12:21:53;;;;;;;;;;;7.70;91.00;;;;;;5117382;27;19911;-88
2021/01/23 12:24:19;;;;;;;;;;;7.60;91.50;;;;;;5157143;27;19994;-88
2021/01/23 12:26:47;;;;;;;;;;;7.40;91.80;;;;;;5138521;27;19911;-88
2021/01/23 12:29:15;;;;;;;;;;;7.20;92.30;;;;;;5157532;27;19953;-88
2021/01/23 12:31:41;;;;;;;;;;;7.10;92.70;;;;;;5119924;27;20283;-87
2021/01/23 12:34:07;;;;;;;;;;;6.90;93.20;;;;;;5112934;27;19966;-87
2021/01/23 12:36:32;;;;;;;;;;;6.90;93.80;;;;;;5145678;27;19915;-87
2021/01/23 12:38:58;;;;;;;;;;;6.80;93.60;;;;;;5139154;27;19971;-86
2021/01/23 12:41:23;;;;;;;;;;;6.80;94.10;;;;;;5138550;27;19914;-88
2021/01/23 12:43:49;;;;;;;;;;;6.90;94.10;;;;;;5138609;27;19914;-87
2021/01/23 12:46:15;;;;;;;;;;;7.00;94.30;;;;;;5138015;27;20248;-87
2021/01/23 12:48:40;;;;;;;;;;;7.10;94.20;;;;;;5138081;27;20009;-87
2021/01/23 12:51:08;;;;;;;;;;;7.30;94.10;;;;;;5157014;27;19911;-87
2021/01/23 12:53:34;;;;;;;;;;;7.50;93.60;;;;;;5138314;27;19915;-86
2021/01/23 12:56:01;;;;;;;;;;;7.60;93.40;;;;;;5134554;27;19911;-86
2021/01/23 12:58:34;;;;;;;;;;;7.60;93.00;;;;;;5137825;27;19919;-87
2021/01/23 13:00:59;;;;;;;;;;;7.50;93.00;;;;;;5112744;28;19912;-87
2021/01/23 13:03:26;;;;;;;;;;;7.40;92.70;;;;;;5095444;28;20002;-86
2021/01/23 13:05:52;;;;;;;;;;;7.30;93.00;;;;;;5095302;28;19924;-85
2021/01/23 13:08:17;;;;;;;;;;;7.20;93.20;;;;;;5107825;28;19914;-86
2021/01/23 13:10:43;;;;;;;;;;;7.00;93.10;;;;;;5113117;28;20002;-88
2021/01/23 13:13:09;;;;;;;;;;;6.90;93.50;;;;;;5095836;28;19959;-87
2021/01/23 13:15:35;;;;;;;;;;;6.80;94.00;;;;;;5112485;28;20399;-87
2021/01/23 13:18:01;;;;;;;;;;;6.80;94.60;;;;;;5095476;28;19911;-87
2021/01/23 13:20:26;;;;;;;;;;;6.80;94.80;;;;;;5096362;28;19931;-87
2021/01/23 13:22:52;;;;;;;;;;;6.80;95.30;;;;;;5095498;28;20260;-87
2021/01/23 13:25:18;;;;;;;;;;;6.80;95.40;;;;;;5112365;28;19912;-87
2021/01/23 13:27:45;;;;;;;;;;;6.90;95.50;;;;;;5113210;28;19946;-87
2021/01/23 13:30:10;;;;;;;;;;;7.00;95.50;;;;;;5112889;28;19908;-87
2021/01/23 13:32:36;;;;;;;;;;;7.20;95.50;;;;;;5127138;27;20334;-87
2021/01/23 13:35:02;;;;;;;;;;;7.30;95.60;;;;;;5137740;27;20352;-87
2021/01/23 13:37:31;;;;;;;;;;;7.60;94.50;;;;;;5134624;27;19918;-88
2021/01/23 13:39:56;;;;;;;;;;;7.70;94.00;;;;;;5131576;27;19922;-86
2021/01/23 13:42:22;;;;;;;;;;;7.80;93.40;;;;;;5153289;27;19978;-86
2021/01/23 13:44:48;;;;;;;;;;;7.80;93.60;;;;;;5145552;27;19958;-86
2021/01/23 13:47:13;;;;;;;;;;;7.70;93.50;;;;;;5150348;27;20303;-86
2021/01/23 13:49:39;;;;;;;;;;;7.60;92.90;;;;;;5133472;27;20002;-85
2021/01/23 13:52:04;;;;;;;;;;;7.40;93.10;;;;;;5143848;27;19955;-84
2021/01/23 13:54:30;;;;;;;;;;;7.40;93.60;;;;;;5092600;28;20318;-85
2021/01/23 13:56:55;;;;;;;;;;;7.40;93.70;;;;;;5078128;28;20033;-85
2021/01/23 13:59:27;;;;;;;;;;;7.40;93.70;;;;;;5099235;28;19955;-85
2021/01/23 14:01:52;;;;;;;;;;;7.60;94.20;;;;;;5091660;28;19908;-85
2021/01/23 14:04:19;;;;;;;;;;;7.60;93.90;;;;;;5074886;28;19991;-85
2021/01/23 14:06:45;;;;;;;;;;;7.50;93.90;;;;;;5074487;28;20343;-85
2021/01/23 14:09:15;;;;;;;;;;;7.40;94.20;;;;;;5074432;28;19947;-85
2021/01/23 14:11:44;;;;;;;;;;;7.20;94.20;;;;;;5091599;28;20369;-85
2021/01/23 14:14:09;;;;;;;;;;;7.10;94.80;;;;;;5074484;28;19908;-84
2021/01/23 14:16:35;;;;;;;;;;;6.90;95.30;;;;;;5051075;28;20046;-84
2021/01/23 14:19:05;;;;;;;;;;;6.70;95.80;;;;;;5034684;28;19982;-84
2021/01/23 14:21:30;;;;;;;;;;;6.60;96.30;;;;;;5051426;28;19913;-85
2021/01/23 14:23:56;;;;;;;;;;;6.50;96.60;;;;;;5051304;28;20405;-85
2021/01/23 14:26:21;;;;;;;;;;;6.50;97.10;;;;;;5035131;28;19921;-85
2021/01/23 14:28:47;;;;;;;;;;;6.40;97.30;;;;;;5051466;28;19913;-85
2021/01/23 14:31:15;;;;;;;;;;;6.40;97.70;;;;;;5059090;28;19914;-85
2021/01/23 14:33:41;;;;;;;;;;;6.40;98.00;;;;;;5091942;28;20361;-85
2021/01/23 14:36:07;;;;;;;;;;;6.20;98.20;;;;;;5092004;28;19942;-84
2021/01/23 14:38:36;;;;;;;;;;;6.20;98.40;;;;;;5091395;28;20411;-84
2021/01/23 14:41:01;;;;;;;;;;;6.10;98.60;;;;;;5091396;28;19915;-84
2021/01/23 14:43:28;;;;;;;;;;;6.10;99.30;;;;;;5091062;28;20408;-85
2021/01/23 14:45:55;;;;;;;;;;;6.00;99.90;;;;;;5090113;28;20016;-84
2021/01/23 14:48:20;;;;;;;;;;;6.00;99.90;;;;;;5116071;27;20266;-84